createdAt,value
2023-08-19T00:02:04.037Z,99.90
2023-08-19T00:04:31.945Z,99.90
2023-08-19T00:06:59.757Z,99.90
2023-08-19T00:09:28.975Z,99.90
2023-08-19T00:11:56.855Z,99.90
2023-08-19T00:14:25.000Z,99.90
2023-08-19T00:16:52.904Z,99.90
2023-08-19T00:19:20.694Z,99.90
2023-08-19T00:21:48.677Z,99.90
2023-08-19T00:24:16.570Z,99.90
2023-08-19T00:26:45.839Z,99.90
2023-08-19T00:29:14.410Z,99.90
2023-08-19T00:31:42.374Z,99.90
2023-08-19T00:34:10.402Z,99.90
2023-08-19T00:36:38.308Z,99.90
2023-08-19T00:39:06.382Z,99.90
2023-08-19T00:41:34.495Z,99.90
2023-08-19T00:44:04.631Z,99.90
2023-08-19T00:46:32.718Z,99.90
2023-08-19T00:49:01.109Z,99.90
2023-08-19T00:51:28.934Z,99.90
2023-08-19T00:53:56.879Z,99.90
2023-08-19T00:56:24.783Z,99.90
2023-08-19T00:58:52.652Z,99.90
2023-08-19T01:01:23.570Z,99.90
2023-08-19T01:03:51.612Z,99.90
2023-08-19T01:06:24.255Z,99.90
2023-08-19T01:08:56.364Z,99.90
2023-08-19T01:11:33.059Z,99.90
2023-08-19T01:14:03.174Z,99.90
2023-08-19T01:16:32.845Z,99.90
2023-08-19T01:19:02.377Z,99.90
2023-08-19T01:21:30.313Z,99.90
2023-08-19T01:24:00.790Z,99.90
2023-08-19T01:26:30.094Z,99.90
2023-08-19T01:28:58.093Z,99.90
2023-08-19T01:31:25.930Z,99.90
2023-08-19T01:33:55.085Z,99.90
2023-08-19T01:36:28.565Z,99.90
2023-08-19T01:39:01.394Z,99.90
2023-08-19T01:41:31.735Z,99.90
2023-08-19T01:44:00.902Z,99.90
2023-08-19T01:46:29.020Z,99.90
2023-08-19T01:48:57.163Z,99.90
2023-08-19T01:51:25.633Z,99.90
2023-08-19T01:53:54.320Z,99.90
2023-08-19T01:56:22.946Z,99.90
2023-08-19T01:58:52.433Z,99.90
2023-08-19T02:01:20.404Z,99.90
2023-08-19T02:03:48.429Z,99.90
2023-08-19T02:06:16.233Z,99.90
2023-08-19T02:08:44.133Z,99.90
2023-08-19T02:11:12.299Z,99.90
2023-08-19T02:13:40.249Z,99.90
2023-08-19T02:16:09.642Z,99.90
2023-08-19T02:18:37.677Z,99.90
2023-08-19T02:21:05.559Z,99.90
2023-08-19T02:23:33.448Z,99.90
2023-08-19T02:26:01.268Z,99.90
2023-08-19T02:28:29.392Z,99.90
2023-08-19T02:31:02.611Z,99.90
2023-08-19T02:33:31.932Z,99.90
2023-08-19T02:35:59.804Z,99.90
2023-08-19T02:38:27.636Z,99.90
2023-08-19T02:40:55.631Z,99.90
2023-08-19T02:43:23.773Z,99.90
2023-08-19T02:45:51.580Z,99.90
2023-08-19T02:48:19.504Z,99.90
2023-08-19T02:50:48.715Z,99.90
2023-08-19T02:53:16.712Z,99.90
2023-08-19T02:55:44.542Z,99.90
2023-08-19T02:58:14.535Z,99.90
2023-08-19T03:00:42.562Z,99.90
2023-08-19T03:03:11.662Z,99.90
2023-08-19T03:05:40.207Z,99.90
2023-08-19T03:08:10.057Z,99.90
2023-08-19T03:10:38.230Z,99.90
2023-08-19T03:13:06.603Z,99.90
2023-08-19T03:15:35.032Z,99.90
2023-08-19T03:18:02.934Z,99.90
2023-08-19T03:20:32.623Z,99.90
2023-08-19T03:23:00.552Z,99.90
2023-08-19T03:25:29.834Z,99.90
2023-08-19T03:27:58.708Z,99.90
2023-08-19T03:30:26.930Z,99.90
2023-08-19T03:32:54.877Z,99.90
2023-08-19T03:35:22.978Z,99.90
2023-08-19T03:37:50.944Z,99.90
2023-08-19T03:40:19.512Z,99.90
2023-08-19T03:42:48.778Z,99.90
2023-08-19T03:45:16.748Z,99.90
2023-08-19T03:47:44.697Z,99.90
2023-08-19T03:50:12.542Z,99.90
2023-08-19T03:52:40.464Z,99.90
2023-08-19T03:55:10.982Z,99.90
2023-08-19T03:57:38.894Z,99.90
2023-08-19T04:00:09.207Z,99.90
2023-08-19T04:02:42.212Z,99.90
2023-08-19T04:05:12.462Z,99.90
2023-08-19T04:07:40.317Z,99.90
2023-08-19T04:10:09.069Z,99.90
2023-08-19T04:12:37.333Z,99.90
2023-08-19T04:15:05.517Z,99.90
2023-08-19T04:17:36.260Z,99.90
2023-08-19T04:20:09.228Z,99.90
2023-08-19T04:22:38.127Z,99.90
2023-08-19T04:25:06.495Z,99.90
2023-08-19T04:27:34.581Z,99.90
2023-08-19T04:30:04.755Z,99.90
2023-08-19T04:32:33.138Z,99.90
2023-08-19T04:35:04.602Z,99.90
2023-08-19T04:37:32.682Z,99.90
2023-08-19T04:40:01.279Z,99.90
2023-08-19T04:42:36.517Z,99.90
2023-08-19T04:45:07.004Z,99.90
2023-08-19T04:47:36.599Z,99.90
2023-08-19T04:50:09.616Z,99.90
2023-08-19T04:52:38.490Z,99.90
2023-08-19T04:55:09.350Z,99.90
2023-08-19T04:57:37.248Z,99.90
2023-08-19T05:00:06.946Z,99.90
2023-08-19T05:02:34.962Z,99.90
2023-08-19T05:05:03.181Z,99.90
2023-08-19T05:07:33.184Z,99.90
2023-08-19T05:10:01.457Z,99.90
2023-08-19T05:12:29.476Z,99.90
2023-08-19T05:14:57.774Z,99.90
2023-08-19T05:17:25.758Z,99.90
2023-08-19T05:19:56.144Z,99.90
2023-08-19T05:22:24.243Z,99.90
2023-08-19T05:24:53.536Z,99.90
2023-08-19T05:27:22.724Z,99.90
2023-08-19T05:29:50.572Z,99.90
2023-08-19T05:32:18.405Z,99.90
2023-08-19T05:34:46.268Z,99.90
2023-08-19T05:37:14.353Z,99.90
2023-08-19T05:39:42.229Z,99.90
2023-08-19T05:42:12.931Z,99.90
2023-08-19T05:44:40.938Z,99.90
2023-08-19T05:47:10.581Z,99.90
2023-08-19T05:49:38.950Z,99.90
2023-08-19T05:52:06.879Z,99.90
2023-08-19T05:54:34.881Z,99.90
2023-08-19T05:57:02.759Z,99.90
2023-08-19T05:59:31.975Z,99.90
2023-08-19T06:01:59.904Z,99.90
2023-08-19T06:04:27.871Z,99.90
2023-08-19T06:06:55.783Z,99.90
2023-08-19T06:09:23.631Z,99.90
2023-08-19T06:11:52.834Z,99.90
2023-08-19T06:14:21.293Z,99.90
2023-08-19T06:16:50.538Z,99.90
2023-08-19T06:19:18.520Z,99.90
2023-08-19T06:21:47.235Z,99.90
2023-08-19T06:24:15.150Z,99.90
2023-08-19T06:26:43.375Z,99.90
2023-08-19T06:29:11.436Z,99.90
2023-08-19T06:31:39.697Z,99.90
2023-08-19T06:34:09.763Z,99.90
2023-08-19T06:36:38.150Z,99.90
2023-08-19T06:39:08.782Z,99.90
2023-08-19T06:41:38.967Z,99.90
2023-08-19T06:44:09.042Z,99.90
2023-08-19T06:46:37.481Z,99.90
2023-08-19T06:49:05.709Z,99.90
2023-08-19T06:51:35.503Z,99.90
2023-08-19T06:54:03.599Z,99.90
2023-08-19T06:56:33.814Z,99.90
2023-08-19T06:59:05.677Z,99.90
2023-08-19T07:01:33.860Z,99.90
2023-08-19T07:04:02.153Z,99.90
2023-08-19T07:06:31.348Z,99.90
2023-08-19T07:09:02.319Z,99.90
2023-08-19T07:11:30.815Z,99.90
2023-08-19T07:13:59.189Z,99.90
2023-08-19T07:16:28.499Z,99.90
2023-08-19T07:18:56.883Z,99.90
2023-08-19T07:21:26.787Z,99.90
2023-08-19T07:23:56.193Z,99.90
2023-08-19T07:26:26.918Z,99.90
2023-08-19T07:28:56.295Z,99.90
2023-08-19T07:31:24.733Z,99.90
2023-08-19T07:33:52.574Z,99.90
2023-08-19T07:36:20.452Z,99.90
2023-08-19T07:38:49.159Z,99.90
2023-08-19T07:41:17.080Z,99.90
2023-08-19T07:43:46.289Z,99.90
2023-08-19T07:46:17.072Z,99.90
2023-08-19T07:48:45.034Z,99.90
2023-08-19T07:51:12.910Z,99.90
2023-08-19T07:53:41.356Z,99.90
2023-08-19T07:56:09.228Z,99.90
2023-08-19T07:58:37.981Z,99.90
2023-08-19T08:01:07.382Z,99.90
2023-08-19T08:03:35.779Z,99.90
2023-08-19T08:06:05.031Z,99.90
2023-08-19T08:08:32.889Z,99.90
2023-08-19T08:11:01.035Z,99.90
2023-08-19T08:13:29.182Z,99.90
2023-08-19T08:15:57.212Z,99.90
2023-08-19T08:18:26.714Z,99.90
2023-08-19T08:20:54.683Z,99.90
2023-08-19T08:23:22.573Z,99.90
2023-08-19T08:25:50.592Z,99.90
2023-08-19T08:28:18.412Z,99.90
2023-08-19T08:30:46.216Z,99.90
2023-08-19T08:33:14.144Z,99.90
2023-08-19T08:35:43.409Z,99.90
2023-08-19T08:38:11.788Z,99.90
2023-08-19T08:40:39.642Z,99.90
2023-08-19T08:43:07.911Z,99.90
2023-08-19T08:45:36.311Z,99.90
2023-08-19T08:48:06.098Z,99.90
2023-08-19T08:50:34.605Z,99.90
2023-08-19T08:53:04.333Z,99.90
2023-08-19T08:55:32.241Z,99.90
2023-08-19T08:58:00.194Z,99.90
2023-08-19T09:00:28.340Z,99.90
2023-08-19T09:02:57.075Z,99.90
2023-08-19T09:05:27.224Z,99.90
2023-08-19T09:07:57.799Z,99.90
2023-08-19T09:10:29.709Z,99.90
2023-08-19T09:12:58.978Z,99.90
2023-08-19T09:15:29.155Z,99.90
2023-08-19T09:17:57.655Z,99.90
2023-08-19T09:20:26.147Z,99.90
2023-08-19T09:22:54.023Z,99.90
2023-08-19T09:25:21.948Z,99.90
2023-08-19T09:27:54.104Z,99.90
2023-08-19T09:30:21.920Z,99.90
2023-08-19T09:32:50.098Z,99.40
2023-08-19T09:35:17.957Z,99.90
2023-08-19T09:37:45.836Z,99.90
2023-08-19T09:40:19.323Z,99.90
2023-08-19T09:42:48.813Z,99.90
2023-08-19T09:45:20.404Z,99.90
2023-08-19T09:47:49.299Z,99.90
2023-08-19T09:50:17.344Z,99.40
2023-08-19T09:52:53.551Z,99.80
2023-08-19T09:55:23.244Z,99.80
2023-08-19T09:57:52.055Z,99.30
2023-08-19T10:00:21.737Z,99.50
2023-08-19T10:02:49.865Z,99.40
2023-08-19T10:05:17.981Z,99.30
2023-08-19T10:07:47.724Z,99.00
2023-08-19T10:10:15.794Z,99.30
2023-08-19T10:12:45.307Z,99.40
2023-08-19T10:15:14.539Z,99.10
2023-08-19T10:17:46.020Z,99.10
2023-08-19T10:20:15.770Z,99.30
2023-08-19T10:22:46.387Z,98.80
2023-08-19T10:25:15.590Z,98.50
2023-08-19T10:27:44.316Z,97.70
2023-08-19T10:30:29.233Z,97.50
2023-08-19T10:33:04.875Z,97.90
2023-08-19T10:35:47.781Z,97.80
2023-08-19T10:38:17.599Z,96.70
2023-08-19T10:41:02.209Z,97.40
2023-08-19T10:43:48.088Z,97.40
2023-08-19T10:46:17.978Z,97.10
2023-08-19T10:48:52.133Z,97.30
2023-08-19T10:51:20.244Z,97.40
2023-08-19T10:53:51.954Z,96.40
2023-08-19T10:56:21.447Z,96.00
2023-08-19T10:58:50.388Z,97.20
2023-08-19T11:01:18.235Z,97.50
2023-08-19T11:03:46.193Z,96.00
2023-08-19T11:06:15.419Z,95.50
2023-08-19T11:08:44.142Z,96.30
2023-08-19T11:11:15.898Z,96.80
2023-08-19T11:13:44.190Z,96.50
2023-08-19T11:16:12.178Z,96.90
2023-08-19T11:18:43.511Z,95.80
2023-08-19T11:21:11.418Z,94.70
2023-08-19T11:23:40.597Z,94.90
2023-08-19T11:26:08.724Z,95.10
2023-08-19T11:28:37.916Z,95.20
2023-08-19T11:31:06.055Z,95.00
2023-08-19T11:33:34.038Z,94.80
2023-08-19T11:36:01.866Z,95.00
2023-08-19T11:38:29.899Z,94.20
2023-08-19T11:40:59.203Z,94.30
2023-08-19T11:43:27.679Z,93.50
2023-08-19T11:45:56.035Z,92.10
2023-08-19T11:48:24.002Z,92.40
2023-08-19T11:50:52.481Z,92.90
2023-08-19T11:53:27.562Z,92.80
2023-08-19T11:55:59.344Z,91.60
2023-08-19T11:58:38.012Z,89.10
2023-08-19T12:01:06.247Z,91.20
2023-08-19T12:03:34.194Z,92.20
2023-08-19T12:06:02.186Z,91.90
2023-08-19T12:08:31.386Z,92.30
2023-08-19T12:11:00.206Z,91.30
2023-08-19T12:13:31.025Z,88.80
2023-08-19T12:15:59.989Z,89.80
2023-08-19T12:18:27.934Z,90.40
2023-08-19T12:20:55.768Z,89.60
2023-08-19T12:23:23.630Z,90.40
2023-08-19T12:25:52.090Z,87.60
2023-08-19T12:28:20.245Z,89.60
2023-08-19T12:30:49.766Z,88.80
2023-08-19T12:33:18.142Z,88.00
2023-08-19T12:35:47.941Z,89.30
2023-08-19T12:38:16.602Z,89.10
2023-08-19T12:40:45.028Z,90.10
2023-08-19T12:43:13.448Z,89.40
2023-08-19T12:45:41.686Z,87.90
2023-08-19T12:48:11.377Z,81.40
2023-08-19T12:50:39.382Z,81.30
2023-08-19T12:53:08.522Z,82.80
2023-08-19T12:55:36.445Z,84.00
2023-08-19T12:58:05.448Z,83.80
2023-08-19T13:00:33.408Z,81.30
2023-08-19T13:03:01.389Z,81.60
2023-08-19T13:05:30.684Z,84.00
2023-08-19T13:07:59.397Z,83.60
2023-08-19T13:10:27.357Z,83.20
2023-08-19T13:12:55.595Z,79.20
2023-08-19T13:15:23.531Z,78.00
2023-08-19T13:17:51.507Z,77.20
2023-08-19T13:20:22.218Z,78.80
2023-08-19T13:22:51.543Z,78.90
2023-08-19T13:25:19.785Z,78.40
2023-08-19T13:27:47.696Z,79.50
2023-08-19T13:30:16.375Z,77.40
2023-08-19T13:32:44.395Z,79.60
2023-08-19T13:35:12.415Z,73.00
2023-08-19T13:37:40.368Z,75.60
2023-08-19T13:40:11.020Z,76.20
2023-08-19T13:42:38.923Z,78.50
2023-08-19T13:45:08.367Z,77.40
2023-08-19T13:47:36.626Z,74.00
2023-08-19T13:50:06.870Z,69.20
2023-08-19T13:52:39.368Z,68.00
2023-08-19T13:55:08.349Z,67.30
2023-08-19T13:57:38.211Z,62.20
2023-08-19T14:00:11.826Z,60.60
2023-08-19T14:02:41.146Z,59.70
2023-08-19T14:05:10.712Z,59.60
2023-08-19T14:07:38.739Z,58.10
2023-08-19T14:10:07.827Z,55.60
2023-08-19T14:12:37.015Z,55.20
2023-08-19T14:15:05.326Z,52.10
2023-08-19T14:17:34.451Z,50.90
2023-08-19T14:20:05.041Z,46.10
2023-08-19T14:22:33.686Z,46.00
2023-08-19T14:25:01.552Z,45.80
2023-08-19T14:27:29.497Z,46.80
2023-08-19T14:29:59.359Z,45.60
2023-08-19T14:32:27.478Z,46.10
2023-08-19T14:34:56.455Z,44.70
2023-08-19T14:37:24.412Z,45.30
2023-08-19T14:39:52.303Z,46.10
2023-08-19T14:42:20.315Z,46.20
2023-08-19T14:44:48.183Z,46.20
2023-08-19T14:47:17.429Z,45.70
2023-08-19T14:49:45.322Z,43.00
2023-08-19T14:52:17.191Z,43.80
2023-08-19T14:54:45.080Z,43.00
2023-08-19T14:57:12.938Z,43.40
2023-08-19T14:59:40.802Z,41.80
2023-08-19T15:02:08.908Z,40.10
2023-08-19T15:04:38.089Z,41.50
2023-08-19T15:07:06.149Z,40.40
2023-08-19T15:09:34.117Z,43.00
2023-08-19T15:12:01.973Z,42.40
2023-08-19T15:14:30.383Z,42.00
2023-08-19T15:16:58.211Z,41.10
2023-08-19T15:19:26.037Z,40.10
2023-08-19T15:21:55.412Z,40.00
2023-08-19T15:24:23.353Z,39.40
2023-08-19T15:26:51.364Z,40.00
2023-08-19T15:29:20.427Z,40.40
2023-08-19T15:31:48.304Z,41.00
2023-08-19T15:34:16.273Z,40.40
2023-08-19T15:36:44.192Z,40.10
2023-08-19T15:39:13.451Z,40.30
2023-08-19T15:41:41.380Z,39.20
2023-08-19T15:44:09.247Z,40.10
2023-08-19T15:46:37.429Z,40.00
2023-08-19T15:49:05.442Z,40.60
2023-08-19T15:51:33.496Z,41.20
2023-08-19T15:54:01.332Z,40.70
2023-08-19T15:56:30.476Z,40.60
2023-08-19T15:58:58.421Z,40.70
2023-08-19T16:01:26.401Z,41.40
2023-08-19T16:03:54.302Z,41.70
2023-08-19T16:06:22.220Z,43.10
2023-08-19T16:08:51.543Z,43.20
2023-08-19T16:11:19.464Z,43.90
2023-08-19T16:13:49.889Z,44.20
2023-08-19T16:16:17.850Z,45.20
2023-08-19T16:18:45.764Z,43.00
2023-08-19T16:21:13.762Z,42.30
2023-08-19T16:23:41.656Z,41.90
2023-08-19T16:26:09.752Z,41.60
2023-08-19T16:28:37.620Z,42.20
2023-08-19T16:31:07.728Z,42.90
2023-08-19T16:33:36.823Z,42.70
2023-08-19T16:36:05.367Z,42.50
2023-08-19T16:38:33.364Z,42.60
2023-08-19T16:41:01.564Z,42.80
2023-08-19T16:43:29.418Z,42.20
2023-08-19T16:45:58.029Z,42.40
2023-08-19T16:48:27.780Z,41.80
2023-08-19T16:50:56.168Z,42.80
2023-08-19T16:53:26.429Z,42.40
2023-08-19T16:55:54.880Z,42.80
2023-08-19T16:58:23.482Z,43.10
2023-08-19T17:00:58.904Z,43.30
2023-08-19T17:03:28.469Z,43.40
2023-08-19T17:05:56.657Z,43.40
2023-08-19T17:08:24.594Z,44.30
2023-08-19T17:10:52.678Z,44.60
2023-08-19T17:13:20.514Z,45.40
2023-08-19T17:15:53.484Z,47.10
2023-08-19T17:18:21.465Z,47.70
2023-08-19T17:20:54.439Z,49.50
2023-08-19T17:23:22.538Z,49.80
2023-08-19T17:25:50.632Z,49.50
2023-08-19T17:28:18.841Z,49.60
2023-08-19T17:30:46.884Z,50.60
2023-08-19T17:33:15.139Z,51.70
2023-08-19T17:35:43.262Z,51.90
2023-08-19T17:38:15.660Z,51.80
2023-08-19T17:40:44.184Z,52.20
2023-08-19T17:43:12.138Z,52.80
2023-08-19T17:45:40.238Z,53.40
2023-08-19T17:48:08.445Z,53.60
2023-08-19T17:50:36.383Z,53.90
2023-08-19T17:53:04.556Z,55.70
2023-08-19T17:55:34.038Z,56.80
2023-08-19T17:58:02.060Z,57.20
2023-08-19T18:00:30.074Z,57.50
2023-08-19T18:02:58.441Z,58.90
2023-08-19T18:05:27.885Z,59.90
2023-08-19T18:07:55.911Z,60.20
2023-08-19T18:10:27.509Z,60.40
2023-08-19T18:12:56.921Z,60.40
2023-08-19T18:15:25.380Z,60.80
2023-08-19T18:17:53.424Z,61.30
2023-08-19T18:20:21.630Z,62.00
2023-08-19T18:22:49.502Z,63.80
2023-08-19T18:25:18.357Z,64.10
2023-08-19T18:27:47.664Z,66.10
2023-08-19T18:30:17.309Z,66.40
2023-08-19T18:32:45.703Z,66.50
2023-08-19T18:35:14.204Z,68.40
2023-08-19T18:37:43.453Z,68.30
2023-08-19T18:40:12.638Z,69.40
2023-08-19T18:42:41.048Z,70.60
2023-08-19T18:45:10.189Z,70.30
2023-08-19T18:48:01.088Z,70.50
2023-08-19T18:50:30.657Z,71.30
2023-08-19T18:52:58.824Z,71.60
2023-08-19T18:55:27.718Z,72.70
2023-08-19T18:57:55.857Z,74.50
2023-08-19T19:00:24.350Z,75.80
2023-08-19T19:02:52.801Z,76.10
2023-08-19T19:05:21.532Z,76.30
2023-08-19T19:07:51.159Z,77.10
2023-08-19T19:10:24.117Z,77.70
2023-08-19T19:12:54.068Z,78.60
2023-08-19T19:15:22.407Z,79.60
2023-08-19T19:17:54.254Z,81.20
2023-08-19T19:20:23.008Z,82.50
2023-08-19T19:22:52.938Z,83.90
2023-08-19T19:25:22.584Z,85.00
2023-08-19T19:27:51.714Z,87.20
2023-08-19T19:30:20.347Z,88.80
2023-08-19T19:32:48.916Z,90.90
2023-08-19T19:35:18.262Z,90.80
2023-08-19T19:37:47.336Z,91.20
2023-08-19T19:40:17.718Z,91.60
2023-08-19T19:42:45.929Z,92.20
2023-08-19T19:45:14.311Z,92.40
2023-08-19T19:47:43.301Z,92.90
2023-08-19T19:50:11.891Z,93.80
2023-08-19T19:52:40.094Z,94.90
2023-08-19T19:55:08.278Z,96.00
2023-08-19T19:57:38.026Z,96.40
2023-08-19T20:00:09.034Z,96.20
2023-08-19T20:02:36.999Z,97.90
2023-08-19T20:05:05.445Z,98.50
2023-08-19T20:07:33.697Z,99.20
2023-08-19T20:10:19.516Z,99.50
2023-08-19T20:12:53.786Z,99.30
2023-08-19T20:15:21.762Z,99.50
2023-08-19T20:17:51.959Z,99.50
2023-08-19T20:20:20.921Z,99.60
2023-08-19T20:22:50.343Z,99.70
2023-08-19T20:25:18.338Z,99.90
2023-08-19T20:27:46.480Z,99.90
2023-08-19T20:30:15.983Z,99.90
2023-08-19T20:32:43.999Z,99.90
2023-08-19T20:35:11.942Z,99.90
2023-08-19T20:37:39.870Z,99.90
2023-08-19T20:40:08.695Z,99.90
2023-08-19T20:42:36.828Z,99.90
2023-08-19T20:45:05.569Z,99.90
2023-08-19T20:47:34.916Z,99.90
2023-08-19T20:50:03.153Z,99.90
2023-08-19T20:52:32.796Z,99.90
2023-08-19T20:55:00.660Z,99.90
2023-08-19T20:57:28.520Z,99.90
2023-08-19T20:59:56.385Z,99.90
2023-08-19T21:02:24.249Z,99.90
2023-08-19T21:04:53.420Z,99.90
2023-08-19T21:07:21.346Z,99.90
2023-08-19T21:09:49.678Z,99.90
2023-08-19T21:12:17.731Z,99.90
2023-08-19T21:14:45.582Z,99.90
2023-08-19T21:17:13.412Z,99.90
2023-08-19T21:19:41.284Z,99.90
2023-08-19T21:22:10.520Z,99.90
2023-08-19T21:24:38.373Z,99.90
2023-08-19T21:27:06.348Z,99.90
2023-08-19T21:29:34.190Z,99.90
2023-08-19T21:32:02.127Z,99.90
2023-08-19T21:34:30.036Z,99.90
2023-08-19T21:36:58.052Z,99.90
2023-08-19T21:39:27.257Z,99.90
2023-08-19T21:41:55.203Z,99.90
2023-08-19T21:44:23.061Z,99.90
2023-08-19T21:46:52.643Z,99.90
2023-08-19T21:49:20.654Z,99.90
2023-08-19T21:51:48.545Z,99.90
2023-08-19T21:54:16.566Z,99.90
2023-08-19T21:56:45.797Z,99.90
2023-08-19T21:59:13.706Z,99.90
2023-08-19T22:01:41.570Z,99.90
2023-08-19T22:04:09.462Z,99.90
2023-08-19T22:06:37.338Z,99.90
2023-08-19T22:09:05.239Z,99.90
2023-08-19T22:11:33.624Z,99.90
2023-08-19T22:14:02.757Z,99.90
2023-08-19T22:16:30.590Z,99.90
2023-08-19T22:18:58.440Z,99.90
2023-08-19T22:21:26.275Z,99.90
2023-08-19T22:23:54.111Z,99.90
2023-08-19T22:26:21.999Z,99.90
2023-08-19T22:28:49.876Z,99.90
2023-08-19T22:31:19.130Z,99.90
2023-08-19T22:33:49.682Z,99.90
2023-08-19T22:36:17.665Z,99.90
2023-08-19T22:38:45.602Z,99.90
2023-08-19T22:41:13.500Z,99.90
2023-08-19T22:43:41.376Z,99.90
2023-08-19T22:46:09.276Z,99.90
2023-08-19T22:48:38.486Z,99.90
2023-08-19T22:51:06.378Z,99.90
2023-08-19T22:53:34.659Z,99.90
2023-08-19T22:56:02.648Z,99.90
2023-08-19T22:58:30.495Z,99.90
2023-08-19T23:00:58.365Z,99.90
2023-08-19T23:03:26.343Z,99.90
2023-08-19T23:05:56.991Z,99.90
2023-08-19T23:08:24.875Z,99.90
2023-08-19T23:10:52.714Z,99.90
2023-08-19T23:13:20.570Z,99.90
2023-08-19T23:15:48.568Z,99.90
2023-08-19T23:18:16.475Z,99.90
2023-08-19T23:20:44.392Z,99.90
2023-08-19T23:23:13.612Z,99.90
2023-08-19T23:25:41.434Z,99.90
2023-08-19T23:28:10.184Z,99.90
2023-08-19T23:30:38.044Z,99.90
2023-08-19T23:33:06.043Z,99.90
2023-08-19T23:35:33.977Z,99.90
2023-08-19T23:38:01.915Z,99.90
2023-08-19T23:40:31.146Z,99.90
2023-08-19T23:42:58.997Z,99.90
2023-08-19T23:45:26.858Z,99.90
2023-08-19T23:47:55.005Z,99.90
2023-08-19T23:50:23.323Z,99.90
2023-08-19T23:52:51.467Z,99.90
2023-08-19T23:55:19.727Z,99.90
2023-08-19T23:57:49.305Z,99.90
